createdAt,value
2022-08-17T00:02:26.650Z,58.25
2022-08-17T00:04:55.135Z,58.02
2022-08-17T00:07:22.419Z,58.28
2022-08-17T00:09:49.002Z,57.87
2022-08-17T00:12:42.177Z,58.00
2022-08-17T00:15:04.948Z,57.59
2022-08-17T00:17:31.552Z,57.83
2022-08-17T00:19:58.125Z,57.79
2022-08-17T00:22:32.279Z,57.64
2022-08-17T00:25:02.230Z,57.92
2022-08-17T00:27:28.818Z,57.93
2022-08-17T00:29:55.409Z,57.88
2022-08-17T00:33:14.626Z,57.88
2022-08-17T00:35:11.171Z,58.06
2022-08-17T00:37:37.853Z,57.86
2022-08-17T00:40:05.282Z,58.11
2022-08-17T00:42:33.672Z,58.22
2022-08-17T00:45:00.332Z,59.10
2022-08-17T00:47:26.928Z,59.07
2022-08-17T00:49:54.024Z,59.03
2022-08-17T00:52:24.920Z,58.97
2022-08-17T00:54:54.059Z,59.79
2022-08-17T00:57:30.087Z,59.87
2022-08-17T01:00:02.259Z,60.11
2022-08-17T01:02:41.206Z,60.29
2022-08-17T01:05:23.737Z,59.96
2022-08-17T01:07:52.747Z,59.93
2022-08-17T01:11:00.533Z,60.10
2022-08-17T01:13:15.245Z,60.26
2022-08-17T01:15:48.520Z,59.96
2022-08-17T01:18:15.956Z,59.66
2022-08-17T01:20:49.001Z,59.80
2022-08-17T01:23:19.871Z,59.58
2022-08-17T01:25:52.358Z,59.57
2022-08-17T01:28:53.029Z,60.23
2022-08-17T01:31:08.498Z,61.36
2022-08-17T01:33:36.133Z,61.02
2022-08-17T01:36:04.318Z,60.73
2022-08-17T01:38:31.976Z,60.54
2022-08-17T01:41:07.518Z,60.05
2022-08-17T01:43:49.293Z,59.77
2022-08-17T01:46:21.923Z,59.00
2022-08-17T01:48:48.751Z,59.07
2022-08-17T01:51:16.051Z,59.61
2022-08-17T01:53:47.509Z,59.86
2022-08-17T01:56:18.271Z,59.71
2022-08-17T01:58:45.708Z,59.58
2022-08-17T02:01:14.752Z,59.92
2022-08-17T02:03:42.058Z,59.35
2022-08-17T02:06:27.621Z,59.61
2022-08-17T02:09:02.755Z,59.68
2022-08-17T02:11:33.255Z,60.04
2022-08-17T02:14:03.696Z,61.08
2022-08-17T02:16:37.047Z,61.44
2022-08-17T02:19:07.179Z,61.40
2022-08-17T02:21:34.088Z,61.24
2022-08-17T02:24:00.783Z,60.49
2022-08-17T02:26:27.471Z,60.75
2022-08-17T02:28:54.336Z,61.30
2022-08-17T02:31:21.365Z,61.42
2022-08-17T02:33:56.564Z,60.78
2022-08-17T02:36:31.317Z,61.21
2022-08-17T02:38:58.743Z,61.30
2022-08-17T02:41:25.545Z,61.27
2022-08-17T02:43:53.205Z,61.50
2022-08-17T02:46:19.802Z,61.06
2022-08-17T02:48:46.548Z,60.83
2022-08-17T02:51:13.163Z,60.79
2022-08-17T02:53:39.741Z,61.10
2022-08-17T02:56:06.682Z,61.49
2022-08-17T02:58:34.920Z,61.07
2022-08-17T03:01:06.690Z,60.95
2022-08-17T03:03:34.754Z,60.37
2022-08-17T03:06:02.253Z,59.75
2022-08-17T03:08:30.260Z,59.72
2022-08-17T03:10:57.269Z,60.11
2022-08-17T03:13:24.190Z,60.08
2022-08-17T03:15:50.963Z,60.47
2022-08-17T03:18:24.730Z,60.85
2022-08-17T03:20:54.850Z,61.24
2022-08-17T03:23:24.201Z,61.07
2022-08-17T03:25:53.760Z,60.87
2022-08-17T03:28:21.413Z,61.36
2022-08-17T03:30:48.162Z,61.15
2022-08-17T03:33:14.828Z,61.05
2022-08-17T03:35:42.141Z,61.42
2022-08-17T03:38:10.734Z,61.65
2022-08-17T03:40:57.892Z,61.95
2022-08-17T03:43:25.590Z,61.85
2022-08-17T03:46:27.624Z,61.21
2022-08-17T03:49:15.727Z,60.78
2022-08-17T03:52:00.967Z,61.05
2022-08-17T03:54:46.080Z,60.66
2022-08-17T03:57:13.308Z,60.85
2022-08-17T03:59:40.899Z,60.87
2022-08-17T04:02:15.662Z,60.21
2022-08-17T04:04:42.724Z,60.62
2022-08-17T04:07:09.890Z,60.29
2022-08-17T04:09:36.672Z,60.54
2022-08-17T04:12:04.984Z,60.24
2022-08-17T04:14:37.875Z,59.40
2022-08-17T04:17:20.296Z,59.29
2022-08-17T04:19:47.051Z,59.47
2022-08-17T04:22:32.137Z,59.05
2022-08-17T04:25:07.612Z,60.12
2022-08-17T04:27:34.308Z,59.92
2022-08-17T04:30:01.694Z,59.63
2022-08-17T04:33:05.010Z,59.37
2022-08-17T04:35:19.073Z,58.99
2022-08-17T04:37:45.764Z,59.30
2022-08-17T04:40:31.110Z,59.34
2022-08-17T04:43:02.861Z,59.19
2022-08-17T04:45:31.998Z,59.17
2022-08-17T04:48:00.357Z,59.04
2022-08-17T04:50:27.633Z,58.64
2022-08-17T04:52:54.359Z,59.03
2022-08-17T04:55:21.380Z,58.89
2022-08-17T04:57:47.992Z,59.05
2022-08-17T05:00:14.850Z,58.78
2022-08-17T05:02:50.604Z,58.98
2022-08-17T05:05:31.170Z,59.23
2022-08-17T05:08:01.003Z,59.14
2022-08-17T05:10:31.155Z,57.27
2022-08-17T05:12:59.830Z,57.13
2022-08-17T05:15:28.082Z,55.81
2022-08-17T05:17:55.215Z,55.16
2022-08-17T05:20:22.786Z,54.54
2022-08-17T05:22:55.597Z,54.35
2022-08-17T05:25:28.179Z,53.62
2022-08-17T05:27:58.985Z,53.58
2022-08-17T05:30:27.695Z,52.55
2022-08-17T05:33:04.792Z,52.28
2022-08-17T05:35:34.027Z,52.30
2022-08-17T05:38:00.959Z,51.40
2022-08-17T05:40:28.376Z,50.42
2022-08-17T05:43:16.538Z,50.25
2022-08-17T05:46:03.398Z,50.29
2022-08-17T05:48:40.035Z,50.09
2022-08-17T05:51:28.333Z,49.01
2022-08-17T05:54:09.827Z,48.12
2022-08-17T05:57:20.894Z,48.15
2022-08-17T05:59:55.778Z,49.06
2022-08-17T06:02:22.298Z,48.87
2022-08-17T06:05:09.860Z,50.80
2022-08-17T06:07:52.565Z,49.32
2022-08-17T06:10:46.555Z,50.92
2022-08-17T06:13:30.221Z,50.88
2022-08-17T06:16:04.632Z,48.60
2022-08-17T06:19:01.140Z,41.42
2022-08-17T06:21:33.821Z,34.40
2022-08-17T06:24:27.515Z,28.71
2022-08-17T06:26:57.466Z,25.04
2022-08-17T06:30:02.483Z,23.45
2022-08-17T06:32:29.622Z,22.12
2022-08-17T06:35:00.475Z,19.85
2022-08-17T06:37:32.832Z,18.85
2022-08-17T06:40:07.440Z,18.95
2022-08-17T06:43:20.075Z,17.96
2022-08-17T06:46:17.028Z,16.57
2022-08-17T06:48:47.258Z,16.04
2022-08-17T06:52:00.717Z,15.18
2022-08-17T06:54:38.914Z,14.82
2022-08-17T06:57:10.481Z,14.62
2022-08-17T07:00:07.109Z,13.87
2022-08-17T07:03:02.460Z,13.30
2022-08-17T07:05:54.446Z,13.93
2022-08-17T07:08:38.379Z,13.38
2022-08-17T07:11:14.418Z,13.70
2022-08-17T07:13:57.462Z,13.55
2022-08-17T07:17:02.768Z,13.46
2022-08-17T07:19:33.053Z,12.97
2022-08-17T07:22:14.264Z,12.99
2022-08-17T07:24:49.015Z,13.40
2022-08-17T07:27:27.588Z,12.67
2022-08-17T07:30:04.697Z,12.83
2022-08-17T07:32:45.946Z,12.41
2022-08-17T07:35:37.629Z,12.40
2022-08-17T07:38:25.748Z,12.75
2022-08-17T07:41:05.351Z,12.28
2022-08-17T07:43:40.884Z,11.49
2022-08-17T07:46:37.916Z,11.91
2022-08-17T07:49:07.460Z,12.96
2022-08-17T07:51:39.845Z,12.25
2022-08-17T07:54:15.508Z,12.07
2022-08-17T07:56:53.113Z,12.53
2022-08-17T07:59:33.460Z,12.58
2022-08-17T08:02:05.983Z,12.25
2022-08-17T08:05:02.106Z,12.37
2022-08-17T08:07:38.319Z,12.61
2022-08-17T08:10:13.126Z,13.28
2022-08-17T08:12:48.022Z,11.60
2022-08-17T08:15:26.119Z,11.49
2022-08-17T08:17:56.463Z,11.57
2022-08-17T08:20:51.660Z,11.12
2022-08-17T08:23:42.962Z,10.66
2022-08-17T08:26:28.354Z,10.04
2022-08-17T08:29:11.355Z,9.76
2022-08-17T08:31:57.654Z,8.73
2022-08-17T08:34:58.909Z,9.02
2022-08-17T08:37:37.863Z,9.10
2022-08-17T08:40:34.889Z,8.54
2022-08-17T08:43:16.436Z,7.87
2022-08-17T08:46:01.720Z,8.44
2022-08-17T08:48:56.895Z,9.05
2022-08-17T08:51:20.181Z,8.32
2022-08-17T08:53:58.520Z,8.50
2022-08-17T08:56:35.665Z,7.78
2022-08-17T08:59:17.248Z,7.54
2022-08-17T09:02:03.528Z,9.47
2022-08-17T09:05:12.749Z,10.34
2022-08-17T09:08:05.711Z,10.61
2022-08-17T09:10:49.653Z,9.85
2022-08-17T09:13:46.359Z,10.70
2022-08-17T09:16:30.731Z,11.59
2022-08-17T09:19:05.006Z,11.48
2022-08-17T09:21:48.446Z,10.50
2022-08-17T09:24:43.728Z,9.97
2022-08-17T09:27:20.718Z,10.65
2022-08-17T09:29:57.890Z,10.97
2022-08-17T09:32:49.905Z,10.90
2022-08-17T09:35:19.839Z,12.73
2022-08-17T09:38:01.671Z,12.97
2022-08-17T09:40:43.434Z,12.26
2022-08-17T09:43:16.666Z,12.12
2022-08-17T09:45:52.045Z,11.97
2022-08-17T09:48:24.500Z,11.99
2022-08-17T09:51:30.326Z,11.46
2022-08-17T09:54:14.722Z,11.74
2022-08-17T09:57:28.422Z,11.52
2022-08-17T10:00:16.724Z,12.71
2022-08-17T10:02:55.665Z,13.18
2022-08-17T10:05:46.552Z,13.24
2022-08-17T10:08:25.753Z,13.08
2022-08-17T10:11:05.513Z,12.96
2022-08-17T10:13:41.285Z,12.98
2022-08-17T10:16:30.426Z,13.11
2022-08-17T10:19:05.315Z,12.81
2022-08-17T10:22:01.050Z,12.98
2022-08-17T10:25:22.115Z,13.16
2022-08-17T10:27:52.959Z,13.23
2022-08-17T10:30:23.668Z,13.55
2022-08-17T10:32:55.326Z,13.09
2022-08-17T10:35:30.172Z,12.87
2022-08-17T10:37:56.702Z,12.94
2022-08-17T10:40:31.075Z,13.05
2022-08-17T10:43:22.786Z,13.58
2022-08-17T10:46:30.877Z,14.04
2022-08-17T10:49:18.515Z,13.40
2022-08-17T10:51:48.204Z,13.47
2022-08-17T10:54:39.352Z,14.33
2022-08-17T10:57:33.913Z,15.27
2022-08-17T11:00:01.662Z,15.00
2022-08-17T11:02:50.028Z,16.34
2022-08-17T11:05:33.041Z,16.40
2022-08-17T11:08:24.471Z,16.43
2022-08-17T11:11:04.952Z,16.61
2022-08-17T11:14:04.620Z,16.31
2022-08-17T11:16:50.543Z,17.01
2022-08-17T11:19:23.239Z,16.80
2022-08-17T11:21:52.710Z,16.78
2022-08-17T11:24:44.751Z,16.32
2022-08-17T11:27:26.649Z,17.24
2022-08-17T11:30:01.856Z,17.13
2022-08-17T11:32:37.286Z,17.11
2022-08-17T11:35:21.458Z,17.06
2022-08-17T11:38:15.863Z,16.81
2022-08-17T11:41:10.401Z,16.85
2022-08-17T11:44:25.360Z,17.26
2022-08-17T11:47:17.915Z,16.76
2022-08-17T11:50:28.136Z,17.12
2022-08-17T11:52:55.089Z,16.83
2022-08-17T11:55:38.201Z,16.95
2022-08-17T11:58:26.088Z,16.98
2022-08-17T12:00:56.578Z,16.83
2022-08-17T12:03:26.599Z,17.74
2022-08-17T12:06:04.348Z,18.04
2022-08-17T12:08:33.910Z,18.26
2022-08-17T12:11:07.417Z,18.52
2022-08-17T12:13:44.657Z,18.59
2022-08-17T12:16:17.558Z,19.04
2022-08-17T12:18:59.622Z,19.34
2022-08-17T12:21:51.411Z,19.15
2022-08-17T12:24:38.280Z,19.11
2022-08-17T12:27:07.244Z,19.29
2022-08-17T12:29:38.708Z,20.07
2022-08-17T12:32:07.132Z,20.13
2022-08-17T12:34:42.658Z,20.72
2022-08-17T12:37:20.599Z,21.44
2022-08-17T12:39:58.784Z,21.07
2022-08-17T12:42:31.972Z,21.18
2022-08-17T12:44:58.820Z,20.00
2022-08-17T12:47:26.371Z,20.55
2022-08-17T12:50:28.495Z,20.17
2022-08-17T12:52:59.732Z,20.32
2022-08-17T12:55:29.334Z,20.51
2022-08-17T12:57:59.793Z,20.17
2022-08-17T13:00:42.905Z,19.93
2022-08-17T13:03:23.097Z,20.83
2022-08-17T13:05:52.772Z,19.87
2022-08-17T13:08:39.138Z,19.95
2022-08-17T13:11:18.548Z,19.98
2022-08-17T13:13:54.750Z,20.01
2022-08-17T13:16:24.886Z,19.31
2022-08-17T13:19:05.830Z,19.48
2022-08-17T13:21:33.620Z,19.41
2022-08-17T13:24:04.338Z,19.34
2022-08-17T13:26:35.303Z,19.93
2022-08-17T13:29:06.302Z,19.50
2022-08-17T13:31:51.811Z,19.88
2022-08-17T13:34:26.728Z,19.21
2022-08-17T13:37:32.519Z,19.71
2022-08-17T13:40:21.860Z,19.19
2022-08-17T13:42:53.595Z,19.89
2022-08-17T13:45:35.368Z,20.16
2022-08-17T13:48:11.834Z,20.27
2022-08-17T13:50:52.350Z,19.75
2022-08-17T13:53:25.324Z,19.79
2022-08-17T13:55:55.349Z,19.23
2022-08-17T13:58:26.067Z,19.48
2022-08-17T14:00:53.122Z,19.29
2022-08-17T14:03:20.548Z,19.47
2022-08-17T14:05:50.083Z,19.24
2022-08-17T14:08:19.884Z,19.40
2022-08-17T14:10:57.492Z,19.46
2022-08-17T14:13:24.189Z,18.91
2022-08-17T14:15:55.686Z,19.44
2022-08-17T14:18:35.665Z,19.89
2022-08-17T14:21:11.137Z,19.79
2022-08-17T14:23:37.837Z,20.29
2022-08-17T14:26:04.861Z,20.31
2022-08-17T14:28:32.152Z,20.92
2022-08-17T14:31:00.374Z,20.55
2022-08-17T14:33:28.847Z,20.46
2022-08-17T14:35:55.943Z,20.88
2022-08-17T14:38:22.651Z,21.10
2022-08-17T14:40:49.411Z,21.03
2022-08-17T14:43:16.026Z,21.46
2022-08-17T14:45:43.641Z,21.24
2022-08-17T14:48:11.059Z,20.91
2022-08-17T14:50:41.583Z,21.15
2022-08-17T14:53:11.050Z,20.71
2022-08-17T14:55:40.578Z,21.17
2022-08-17T14:58:08.804Z,20.84
2022-08-17T15:00:35.507Z,21.64
2022-08-17T15:03:03.117Z,21.45
2022-08-17T15:05:33.874Z,21.61
2022-08-17T15:08:01.752Z,21.47
2022-08-17T15:10:29.529Z,21.51
2022-08-17T15:12:57.856Z,21.63
2022-08-17T15:15:25.166Z,21.68
2022-08-17T15:17:51.814Z,21.54
2022-08-17T15:20:21.393Z,21.70
2022-08-17T15:22:49.823Z,22.12
2022-08-17T15:25:19.009Z,21.48
2022-08-17T15:27:45.750Z,21.58
2022-08-17T15:30:13.329Z,22.04
2022-08-17T15:32:45.769Z,21.84
2022-08-17T15:35:26.870Z,21.91
2022-08-17T15:37:55.674Z,22.30
2022-08-17T15:40:22.248Z,22.19
2022-08-17T15:42:50.401Z,21.79
2022-08-17T15:45:22.585Z,22.23
2022-08-17T15:47:49.391Z,21.98
2022-08-17T15:50:16.185Z,22.87
2022-08-17T15:52:44.918Z,22.59
2022-08-17T15:55:13.723Z,22.49
2022-08-17T15:57:40.796Z,22.58
2022-08-17T16:00:08.858Z,22.76
2022-08-17T16:03:44.961Z,22.94
2022-08-17T16:05:27.217Z,23.13
2022-08-17T16:07:55.237Z,22.69
2022-08-17T16:10:22.901Z,22.58
2022-08-17T16:13:01.940Z,23.07
2022-08-17T16:15:31.181Z,22.65
2022-08-17T16:17:57.763Z,23.14
2022-08-17T16:20:24.350Z,22.66
2022-08-17T16:22:51.220Z,22.68
2022-08-17T16:25:47.153Z,22.93
2022-08-17T16:28:10.881Z,23.01
2022-08-17T16:30:38.293Z,22.45
2022-08-17T16:33:05.878Z,22.79
2022-08-17T16:35:32.578Z,23.60
2022-08-17T16:37:59.223Z,23.46
2022-08-17T16:40:28.161Z,22.98
2022-08-17T16:42:55.971Z,23.33
2022-08-17T16:45:28.182Z,23.82
2022-08-17T16:48:01.534Z,23.85
2022-08-17T16:50:28.205Z,23.80
2022-08-17T16:53:17.900Z,24.00
2022-08-17T16:55:49.423Z,23.77
2022-08-17T16:58:16.119Z,23.88
2022-08-17T17:00:44.254Z,24.23
2022-08-17T17:03:20.012Z,23.91
2022-08-17T17:06:07.211Z,23.73
2022-08-17T17:08:46.687Z,24.07
2022-08-17T17:11:21.610Z,24.20
2022-08-17T17:13:57.886Z,24.42
2022-08-17T17:16:36.222Z,24.35
2022-08-17T17:19:35.204Z,24.50
2022-08-17T17:22:16.527Z,24.33
2022-08-17T17:25:12.125Z,24.66
2022-08-17T17:27:42.887Z,25.09
2022-08-17T17:30:15.133Z,25.31
2022-08-17T17:32:41.719Z,25.50
2022-08-17T17:35:11.485Z,25.74
2022-08-17T17:37:40.432Z,26.36
2022-08-17T17:40:14.521Z,26.56
2022-08-17T17:42:43.919Z,26.83
2022-08-17T17:45:20.372Z,27.02
2022-08-17T17:47:47.698Z,27.25
2022-08-17T17:50:17.466Z,28.05
2022-08-17T17:52:51.252Z,28.07
2022-08-17T17:55:45.689Z,28.22
2022-08-17T17:58:22.767Z,28.27
2022-08-17T18:01:08.427Z,28.87
2022-08-17T18:03:53.904Z,28.97
2022-08-17T18:06:35.514Z,29.13
2022-08-17T18:09:19.416Z,29.51
2022-08-17T18:11:53.943Z,29.68
2022-08-17T18:14:50.947Z,29.68
2022-08-17T18:17:18.330Z,30.84
2022-08-17T18:19:45.306Z,31.86
2022-08-17T18:22:19.458Z,32.39
2022-08-17T18:24:49.547Z,33.02
2022-08-17T18:27:40.791Z,33.61
2022-08-17T18:30:13.152Z,33.29
2022-08-17T18:32:42.490Z,33.28
2022-08-17T18:35:09.131Z,33.86
2022-08-17T18:37:42.712Z,33.17
2022-08-17T18:40:19.575Z,33.26
2022-08-17T18:43:08.390Z,33.33
2022-08-17T18:45:48.168Z,33.74
2022-08-17T18:48:37.942Z,34.15
2022-08-17T18:51:40.952Z,34.17
2022-08-17T18:54:22.374Z,35.19
2022-08-17T18:56:51.807Z,36.33
2022-08-17T18:59:27.544Z,35.95
2022-08-17T19:02:02.031Z,36.55
2022-08-17T19:04:39.719Z,36.32
2022-08-17T19:07:11.025Z,36.08
2022-08-17T19:09:47.638Z,36.49
2022-08-17T19:12:33.286Z,36.17
2022-08-17T19:15:00.951Z,36.28
2022-08-17T19:17:35.438Z,36.07
2022-08-17T19:20:20.054Z,36.68
2022-08-17T19:23:11.369Z,37.23
2022-08-17T19:25:46.545Z,36.62
2022-08-17T19:28:22.562Z,36.08
2022-08-17T19:30:54.913Z,36.44
2022-08-17T19:33:21.794Z,37.24
2022-08-17T19:35:57.507Z,37.01
2022-08-17T19:38:42.462Z,36.63
2022-08-17T19:41:38.572Z,36.87
2022-08-17T19:44:14.995Z,36.62
2022-08-17T19:46:55.940Z,37.06
2022-08-17T19:49:33.461Z,36.66
2022-08-17T19:52:32.602Z,36.86
2022-08-17T19:55:09.719Z,36.60
2022-08-17T19:58:02.720Z,36.78
2022-08-17T20:00:33.711Z,37.13
2022-08-17T20:03:08.057Z,37.34
2022-08-17T20:06:10.945Z,36.95
2022-08-17T20:08:39.518Z,37.18
2022-08-17T20:11:10.709Z,37.43
2022-08-17T20:13:43.550Z,37.55
2022-08-17T20:16:11.247Z,37.54
2022-08-17T20:18:48.808Z,38.05
2022-08-17T20:21:41.990Z,38.33
2022-08-17T20:24:21.866Z,38.15
2022-08-17T20:26:58.183Z,38.43
2022-08-17T20:29:40.233Z,38.76
2022-08-17T20:32:18.824Z,38.73
2022-08-17T20:34:47.874Z,38.44
2022-08-17T20:37:14.551Z,38.49
2022-08-17T20:39:45.948Z,38.93
2022-08-17T20:42:15.335Z,39.11
2022-08-17T20:44:43.274Z,39.21
2022-08-17T20:47:35.689Z,39.28
2022-08-17T20:50:07.158Z,39.75
2022-08-17T20:52:56.312Z,39.86
2022-08-17T20:55:35.438Z,39.82
2022-08-17T20:58:24.693Z,39.94
2022-08-17T21:00:57.397Z,40.21
2022-08-17T21:03:24.148Z,40.38
2022-08-17T21:06:17.604Z,40.20
2022-08-17T21:08:45.868Z,39.84
2022-08-17T21:11:57.080Z,39.92
2022-08-17T21:14:32.800Z,39.64
2022-08-17T21:17:18.502Z,39.96
2022-08-17T21:20:22.030Z,40.10
2022-08-17T21:22:58.569Z,40.17
2022-08-17T21:25:43.195Z,40.18
2022-08-17T21:28:12.844Z,40.62
2022-08-17T21:30:39.409Z,41.21
2022-08-17T21:33:27.144Z,41.98
2022-08-17T21:35:59.554Z,41.80
2022-08-17T21:38:38.034Z,41.46
2022-08-17T21:41:04.882Z,41.25
2022-08-17T21:43:37.489Z,41.31
2022-08-17T21:46:10.808Z,41.56
2022-08-17T21:48:43.071Z,40.79
2022-08-17T21:51:14.969Z,40.74
2022-08-17T21:53:51.433Z,40.89
2022-08-17T21:56:24.898Z,40.56
2022-08-17T21:58:59.583Z,40.34
2022-08-17T22:01:30.173Z,40.26
2022-08-17T22:03:58.680Z,40.63
2022-08-17T22:06:52.647Z,40.68
2022-08-17T22:09:31.937Z,40.84
2022-08-17T22:12:12.372Z,40.92
2022-08-17T22:14:53.272Z,40.68
2022-08-17T22:17:30.189Z,41.04
2022-08-17T22:20:14.480Z,41.11
2022-08-17T22:23:08.747Z,41.10
2022-08-17T22:25:38.330Z,41.03
2022-08-17T22:28:08.152Z,40.67
2022-08-17T22:30:58.749Z,40.11
2022-08-17T22:33:42.375Z,40.00
2022-08-17T22:36:24.656Z,40.14
2022-08-17T22:38:54.796Z,40.22
2022-08-17T22:41:35.847Z,40.30
2022-08-17T22:44:14.084Z,40.56
2022-08-17T22:46:56.157Z,40.77
2022-08-17T22:49:34.170Z,40.88
2022-08-17T22:52:32.152Z,40.79
2022-08-17T22:55:34.887Z,41.35
2022-08-17T22:58:28.022Z,41.60
2022-08-17T23:00:55.065Z,41.32
2022-08-17T23:03:27.993Z,41.35
2022-08-17T23:06:11.870Z,41.02
2022-08-17T23:08:59.537Z,40.87
2022-08-17T23:11:42.872Z,41.14
2022-08-17T23:14:19.089Z,41.15
2022-08-17T23:16:46.297Z,41.23
2022-08-17T23:19:16.469Z,41.49
2022-08-17T23:21:46.668Z,41.32
2022-08-17T23:24:23.482Z,41.22
2022-08-17T23:26:50.661Z,40.50
2022-08-17T23:29:17.297Z,40.25
2022-08-17T23:31:43.919Z,39.99
2022-08-17T23:34:13.331Z,39.84
2022-08-17T23:36:40.331Z,39.79
2022-08-17T23:39:07.574Z,39.19
2022-08-17T23:41:38.987Z,38.91
2022-08-17T23:44:06.997Z,38.74
2022-08-17T23:46:34.634Z,39.42
2022-08-17T23:49:01.473Z,40.06
2022-08-17T23:51:31.643Z,40.29
2022-08-17T23:54:07.967Z,41.32
2022-08-17T23:56:41.927Z,42.36
2022-08-17T23:59:08.521Z,43.20
